Time;durP1;ratioP1;P1;durP2;ratioP2;P2;SDS_P1;SDS_P2;PMS_P1;PMS_P2;Temp;Humidity;BMP_temperature;BMP_pressure;BME280_temperature;BME280_humidity;BME280_pressure;Samples;Min_cycle;Max_cycle;Signal;HPM_P1;HPM_P2
2023/03/22 00:01:18;;;;;;;10.10;9.00;;;;;;;12.20;100.00;94516.06;5052530;28;20495;-81
2023/03/22 00:03:45;;;;;;;9.10;8.13;;;;;;;12.18;100.00;94513.59;5052648;28;20445;-81
2023/03/22 00:06:12;;;;;;;10.37;9.27;;;;;;;12.16;100.00;94504.19;5052157;28;20448;-81
2023/03/22 00:08:40;;;;;;;9.40;8.50;;;;;;;12.17;100.00;94506.69;5052201;28;20484;-81
2023/03/22 00:11:08;;;;;;;10.70;9.20;;;;;;;12.12;100.00;94508.06;5052495;28;20449;-80
2023/03/22 00:13:36;;;;;;;12.13;8.40;;;;;;;12.06;100.00;94505.06;5052380;28;20441;-82
2023/03/22 00:16:03;;;;;;;15.63;9.87;;;;;;;12.05;100.00;94505.22;5052326;28;20449;-80
2023/03/22 00:18:30;;;;;;;8.33;7.47;;;;;;;11.99;99.96;94509.28;5052054;28;20445;-81
2023/03/22 00:20:59;;;;;;;8.00;7.20;;;;;;;11.90;100.00;94504.09;5052487;28;20446;-81
2023/03/22 00:23:27;;;;;;;7.63;6.80;;;;;;;11.84;100.00;94507.28;5033679;28;21033;-80
2023/03/22 00:25:55;;;;;;;8.10;7.40;;;;;;;11.79;100.00;94503.28;5051888;28;20449;-80
2023/03/22 00:28:23;;;;;;;8.40;6.80;;;;;;;11.69;100.00;94499.03;5051834;28;20483;-81
2023/03/22 00:30:55;;;;;;;9.73;7.60;;;;;;;11.69;100.00;94496.41;5033036;28;20437;-80
2023/03/22 00:33:23;;;;;;;8.27;7.47;;;;;;;11.65;100.00;94505.56;5051830;28;20457;-80
2023/03/22 00:35:51;;;;;;;9.07;6.57;;;;;;;11.69;100.00;94497.25;5051855;28;20472;-81
2023/03/22 00:38:18;;;;;;;7.80;7.00;;;;;;;11.75;100.00;94491.38;5052183;28;20438;-80
2023/03/22 00:40:45;;;;;;;9.83;7.63;;;;;;;11.79;100.00;94491.94;5051956;28;20429;-80
2023/03/22 00:43:12;;;;;;;9.27;5.90;;;;;;;11.83;100.00;94495.94;5051212;28;20445;-81
2023/03/22 00:45:40;;;;;;;7.93;6.73;;;;;;;11.89;100.00;94495.38;5051650;28;20473;-81
2023/03/22 00:48:08;;;;;;;7.07;6.30;;;;;;;11.94;100.00;94493.13;5051819;28;20573;-80
2023/03/22 00:50:35;;;;;;;7.47;6.77;;;;;;;11.94;100.00;94494.91;5051788;28;20453;-81
2023/03/22 00:53:05;;;;;;;6.67;6.03;;;;;;;11.93;99.97;94488.84;5051740;28;20445;-81
2023/03/22 00:55:32;;;;;;;6.67;6.07;;;;;;;11.92;99.59;94495.06;5051411;28;20503;-81
2023/03/22 00:57:59;;;;;;;6.40;5.83;;;;;;;11.87;100.00;94488.59;5051675;28;20507;-79
2023/03/22 01:00:26;;;;;;;6.87;6.27;;;;;;;11.89;100.00;94492.75;5051903;28;20544;-81
2023/03/22 01:02:58;;;;;;;8.53;7.77;;;;;;;11.85;100.00;94482.63;5051995;28;20433;-80
2023/03/22 01:05:27;;;;;;;15.67;9.80;;;;;;;11.87;99.67;94488.59;5051754;28;20441;-81
2023/03/22 01:07:54;;;;;;;9.73;8.50;;;;;;;11.88;99.68;94485.00;5051315;28;20524;-80
2023/03/22 01:10:21;;;;;;;11.97;6.63;;;;;;;11.85;99.79;94482.63;5051684;28;20516;-85
2023/03/22 01:12:48;;;;;;;7.57;6.83;;;;;;;11.81;99.81;94476.03;5052811;28;20449;-78
2023/03/22 01:15:15;;;;;;;11.00;7.93;;;;;;;11.76;100.00;94472.00;5053179;28;20441;-80
2023/03/22 01:17:42;;;;;;;11.90;7.97;;;;;;;11.77;100.00;94471.03;5053518;28;20437;-79
2023/03/22 01:20:11;;;;;;;13.60;9.43;;;;;;;11.81;100.00;94476.03;5053008;28;20499;-80
2023/03/22 01:22:38;;;;;;;7.63;6.07;;;;;;;11.77;100.00;94468.41;5017821;28;20448;-80
2023/03/22 01:25:06;;;;;;;6.03;5.30;;;;;;;11.79;99.36;94470.91;5033309;28;20446;-81
2023/03/22 01:27:33;;;;;;;6.27;5.50;;;;;;;11.76;99.40;94468.56;5052211;28;20847;-81
2023/03/22 01:29:59;;;;;;;5.93;4.30;;;;;;;11.75;99.30;94467.72;5033783;28;20448;-80
2023/03/22 01:32:26;;;;;;;4.53;4.10;;;;;;;11.70;99.60;94466.53;5034475;28;20449;-81
2023/03/22 01:34:53;;;;;;;4.53;4.13;;;;;;;11.64;98.91;94465.31;5052663;28;20468;-80
2023/03/22 01:37:24;;;;;;;5.43;4.93;;;;;;;11.59;99.79;94466.75;5052850;28;20442;-80
2023/03/22 01:46:34;;;;;;;7.00;6.30;;;;;;;11.55;99.53;94460.91;5051587;28;20553;-80
2023/03/22 01:49:03;;;;;;;6.57;5.93;;;;;;;11.52;99.27;94463.00;5052548;28;20532;-80
2023/03/22 01:51:30;;;;;;;6.10;5.53;;;;;;;11.51;100.00;94456.94;5053009;28;20446;-79
2023/03/22 01:54:02;;;;;;;5.90;5.30;;;;;;;11.49;100.00;94453.63;5053558;28;20430;-80
2023/03/22 01:56:32;;;;;;;6.30;5.70;;;;;;;11.52;100.00;94466.47;5056236;28;20512;-80
2023/03/22 01:59:00;;;;;;;7.53;6.00;;;;;;;11.50;100.00;94465.78;5056566;28;20464;-80
2023/03/22 02:01:27;;;;;;;6.70;6.07;;;;;;;11.52;100.00;94458.59;5055680;28;20460;-80
2023/03/22 02:03:58;;;;;;;7.80;6.13;;;;;;;11.56;100.00;94462.56;5055095;28;20444;-79
2023/03/22 02:06:28;;;;;;;6.30;5.80;;;;;;;11.54;100.00;94461.06;5054701;28;20445;-79
2023/03/22 02:08:57;;;;;;;5.17;4.77;;;;;;;11.58;100.00;94462.47;5054377;28;20489;-81
2023/03/22 02:11:31;;;;;;;6.77;6.07;;;;;;;11.61;100.00;94465.63;5054690;28;20793;-82
2023/03/22 02:14:14;;;;;;;6.03;5.37;;;;;;;11.60;100.00;94460.50;5054464;28;20437;-80
2023/03/22 02:16:53;;;;;;;6.10;5.03;;;;;;;11.68;100.00;94469.31;5054764;28;20446;-81
2023/03/22 02:19:44;;;;;;;5.73;5.23;;;;;;;11.62;99.18;94469.91;5054457;28;20947;-80
2023/03/22 02:22:37;;;;;;;6.60;6.00;;;;;;;11.53;98.52;94460.25;5054758;28;20457;-80
2023/03/22 02:25:29;;;;;;;6.23;5.57;;;;;;;11.55;99.22;94473.22;5020253;28;20528;-79
2023/03/22 02:28:13;;;;;;;7.40;5.30;;;;;;;11.49;100.00;94470.22;5054209;28;20946;-80
2023/03/22 02:31:14;;;;;;;5.50;5.00;;;;;;;11.47;100.00;94476.59;5054439;28;20551;-80
2023/03/22 02:33:59;;;;;;;6.13;5.13;;;;;;;11.47;100.00;94481.84;4991959;28;20448;-80
2023/03/22 02:37:02;;;;;;;6.73;5.30;;;;;;;11.46;100.00;94482.81;4992300;28;20531;-80
2023/03/22 02:39:38;;;;;;;5.90;4.87;;;;;;;11.42;100.00;94478.84;4973025;28;20964;-79
2023/03/22 02:42:16;;;;;;;5.27;4.77;;;;;;;11.43;100.00;94483.13;4972848;28;20967;-80
2023/03/22 02:44:50;;;;;;;6.03;4.77;;;;;;;11.51;100.00;94483.22;4940427;28;20507;-80
2023/03/22 02:47:24;;;;;;;6.20;5.53;;;;;;;11.57;100.00;94477.41;4972672;28;20485;-80
2023/03/22 02:49:58;;;;;;;5.43;4.83;;;;;;;11.62;100.00;94490.91;4972885;28;20437;-80
2023/03/22 02:52:32;;;;;;;6.43;5.00;;;;;;;11.62;100.00;94485.66;4972780;28;20453;-80
2023/03/22 02:55:06;;;;;;;6.70;5.13;;;;;;;11.64;100.00;94486.34;4972729;28;20452;-80
2023/03/22 02:57:40;;;;;;;6.17;5.30;;;;;;;11.67;100.00;94493.94;4956240;28;20589;-80
2023/03/22 03:00:11;;;;;;;6.30;5.70;;;;;;;11.66;100.00;94492.28;4972557;28;20445;-80
2023/03/22 03:02:42;;;;;;;6.97;6.10;;;;;;;11.63;100.00;94486.50;4972537;28;20819;-80
2023/03/22 03:05:11;;;;;;;5.27;4.87;;;;;;;11.63;100.00;94484.69;4972158;28;20461;-80
2023/03/22 03:07:41;;;;;;;6.00;5.50;;;;;;;11.59;100.00;94483.34;4972419;28;20492;-80
2023/03/22 03:10:12;;;;;;;7.07;5.20;;;;;;;11.60;100.00;94487.63;4978457;28;20716;-80
2023/03/22 03:12:39;;;;;;;5.40;4.90;;;;;;;11.55;100.00;94484.56;4991672;28;20455;-79
2023/03/22 03:15:13;;;;;;;5.60;5.17;;;;;;;11.52;100.00;94495.38;4993370;28;21006;-81
2023/03/22 03:17:53;;;;;;;6.63;5.20;;;;;;;11.45;100.00;94499.56;5017883;28;20460;-80
2023/03/22 03:20:29;;;;;;;5.97;4.73;;;;;;;11.45;100.00;94494.31;5035534;28;20452;-80
2023/03/22 03:23:07;;;;;;;6.23;5.43;;;;;;;11.42;100.00;94499.84;5053280;28;20803;-80
2023/03/22 03:25:42;;;;;;;5.50;4.97;;;;;;;11.40;100.00;94496.53;5053351;28;20854;-77
2023/03/22 03:28:21;;;;;;;5.10;4.60;;;;;;;11.40;100.00;94497.38;5053260;28;20619;-80
2023/03/22 03:30:56;;;;;;;5.07;4.37;;;;;;;11.42;100.00;94494.59;5053496;28;20909;-80
2023/03/22 03:33:28;;;;;;;4.70;4.30;;;;;;;11.43;100.00;94499.72;5052948;28;20515;-80
2023/03/22 03:35:59;;;;;;;5.60;5.20;;;;;;;11.48;100.00;94496.63;5053300;28;20430;-79
2023/03/22 03:38:29;;;;;;;5.33;4.77;;;;;;;11.50;100.00;94494.69;5017645;28;20442;-80
2023/03/22 03:41:02;;;;;;;4.40;4.07;;;;;;;11.52;100.00;94498.00;5053058;28;20444;-80
2023/03/22 03:43:28;;;;;;;4.90;4.40;;;;;;;11.52;100.00;94494.53;5052852;28;20445;-80
2023/03/22 03:45:56;;;;;;;5.17;4.77;;;;;;;11.51;100.00;94503.41;5033779;28;20770;-81
2023/03/22 03:48:26;;;;;;;6.13;5.53;;;;;;;11.49;100.00;94498.28;5052628;28;20488;-79
2023/03/22 03:50:54;;;;;;;5.13;4.50;;;;;;;11.46;100.00;94498.59;5052681;28;20481;-79
2023/03/22 03:53:20;;;;;;;5.70;5.20;;;;;;;11.44;100.00;94503.16;5052717;28;20449;-79
2023/03/22 03:55:47;;;;;;;4.83;4.43;;;;;;;11.44;100.00;94508.41;5050275;28;20468;-80
2023/03/22 03:58:16;;;;;;;4.70;4.30;;;;;;;11.40;100.00;94505.25;5052960;28;20495;-81
2023/03/22 04:00:44;;;;;;;6.27;5.67;;;;;;;11.37;100.00;94510.81;5033538;28;20540;-80
2023/03/22 04:03:11;;;;;;;4.67;4.27;;;;;;;11.36;100.00;94509.16;5052329;28;20450;-80
2023/03/22 04:05:39;;;;;;;5.83;4.47;;;;;;;11.33;100.00;94509.44;5052455;28;20450;-80
2023/03/22 04:08:06;;;;;;;5.53;4.97;;;;;;;11.28;100.00;94502.97;5052418;28;20513;-80
2023/03/22 04:10:36;;;;;;;5.03;4.53;;;;;;;11.28;100.00;94500.34;5052351;28;20449;-80
2023/03/22 04:13:03;;;;;;;4.47;4.07;;;;;;;11.31;100.00;94502.69;5052811;28;20453;-81
2023/03/22 04:15:31;;;;;;;5.13;4.53;;;;;;;11.39;100.00;94515.91;5052443;28;20563;-80
2023/03/22 04:17:58;;;;;;;7.43;5.50;;;;;;;11.42;100.00;94515.63;5051666;28;20442;-80
2023/03/22 04:20:25;;;;;;;5.67;4.00;;;;;;;11.41;100.00;94517.41;5052258;28;20445;-80
2023/03/22 04:22:52;;;;;;;6.07;5.47;;;;;;;11.38;100.00;94517.72;5052243;28;20940;-79
2023/03/22 04:25:21;;;;;;;6.63;5.63;;;;;;;11.38;100.00;94519.50;5052283;28;20457;-80
2023/03/22 04:27:50;;;;;;;5.00;4.60;;;;;;;11.37;100.00;94523.09;5051867;28;20570;-80
2023/03/22 04:30:19;;;;;;;5.40;4.90;;;;;;;11.29;100.00;94520.38;5052060;28;20481;-80
2023/03/22 04:32:48;;;;;;;7.17;4.70;;;;;;;11.21;100.00;94515.00;5051809;28;20464;-80
2023/03/22 04:35:17;;;;;;;7.43;4.73;;;;;;;11.23;100.00;94526.19;5052314;28;20807;-78
2023/03/22 04:37:44;;;;;;;5.77;5.13;;;;;;;11.20;100.00;94526.47;5052535;28;20449;-81
2023/03/22 04:40:15;;;;;;;6.27;4.30;;;;;;;11.21;100.00;94528.13;5051889;28;20449;-80
2023/03/22 04:42:45;;;;;;;6.53;5.20;;;;;;;11.22;99.67;94529.78;5052107;28;20535;-80
2023/03/22 04:45:13;;;;;;;5.47;4.77;;;;;;;11.22;99.90;94527.16;5051726;28;20433;-80
2023/03/22 04:47:41;;;;;;;6.80;5.43;;;;;;;11.17;100.00;94522.34;5052114;28;20476;-80
2023/03/22 04:50:10;;;;;;;5.07;4.60;;;;;;;11.85;100.00;94522.91;5052612;28;20912;-80
2023/03/22 04:52:37;;;;;;;4.37;3.97;;;;;;;11.87;100.00;94530.66;5053441;28;20448;-80
2023/03/22 04:55:04;;;;;;;5.27;4.40;;;;;;;11.84;100.00;94537.03;5052983;28;20440;-80
2023/03/22 04:57:31;;;;;;;5.53;5.00;;;;;;;11.84;99.54;94541.44;5052485;28;20454;-79
2023/03/22 04:59:58;;;;;;;6.97;5.77;;;;;;;11.82;98.29;94541.59;5053071;28;20449;-78
2023/03/22 05:02:25;;;;;;;7.70;5.60;;;;;;;11.81;98.48;94550.47;5053259;28;20459;-80
2023/03/22 05:04:52;;;;;;;6.77;6.13;;;;;;;11.74;98.27;94549.38;5052895;28;20456;-79
2023/03/22 05:07:20;;;;;;;6.23;5.63;;;;;;;11.66;98.11;94551.91;5053170;28;20460;-79
2023/03/22 05:09:47;;;;;;;7.10;5.80;;;;;;;11.64;98.78;94557.31;5052686;28;20481;-79
2023/03/22 05:12:13;;;;;;;6.80;6.20;;;;;;;11.64;98.03;94562.56;5052193;28;20450;-80
2023/03/22 05:14:40;;;;;;;7.07;6.47;;;;;;;11.63;98.16;94565.34;5052568;28;20515;-82
2023/03/22 05:17:07;;;;;;;6.57;5.97;;;;;;;11.57;98.45;94566.75;5052216;28;20445;-80
2023/03/22 05:19:34;;;;;;;6.00;5.50;;;;;;;11.52;99.33;94558.44;5053113;28;20457;-79
2023/03/22 05:22:01;;;;;;;6.33;5.70;;;;;;;11.44;98.65;94561.78;5052918;28;20432;-79
2023/03/22 05:24:31;;;;;;;5.27;4.70;;;;;;;11.40;98.01;94562.22;5034722;28;20441;-79
2023/03/22 05:26:59;;;;;;;6.43;5.93;;;;;;;11.40;98.47;94572.72;5052853;28;20499;-80
2023/03/22 05:29:27;;;;;;;5.20;4.90;;;;;;;11.30;99.59;94554.38;5055790;28;20576;-78
2023/03/22 05:31:54;;;;;;;7.53;6.67;;;;;;;11.31;99.59;94555.22;5056146;28;20449;-79
2023/03/22 05:34:21;;;;;;;10.90;8.30;;;;;;;11.37;99.34;94567.75;5055898;28;20457;-78
2023/03/22 05:36:50;;;;;;;31.50;18.10;;;;;;;11.32;100.00;94559.50;5056574;28;20433;-80
2023/03/22 05:39:17;;;;;;;43.80;21.43;;;;;;;11.37;100.00;94567.75;5038417;28;20439;-79
2023/03/22 05:41:45;;;;;;;31.47;17.67;;;;;;;11.38;100.00;94567.63;5056696;28;20575;-80
2023/03/22 05:44:12;;;;;;;19.67;14.30;;;;;;;11.42;100.00;94571.63;5056753;28;20441;-78
2023/03/22 05:46:38;;;;;;;12.33;11.00;;;;;;;11.47;100.00;94573.81;5056940;28;20896;-80
2023/03/22 05:49:05;;;;;;;12.73;10.90;;;;;;;11.49;100.00;94567.44;5058817;28;20481;-79
2023/03/22 05:51:32;;;;;;;14.03;9.80;;;;;;;11.54;100.00;94569.63;5061488;28;20830;-79
2023/03/22 05:53:59;;;;;;;18.30;10.30;;;;;;;11.51;100.00;94569.91;5076455;28;20443;-79
2023/03/22 05:56:26;;;;;;;10.03;7.83;;;;;;;11.58;100.00;94581.53;5076027;28;20819;-79
2023/03/22 05:58:54;;;;;;;13.33;7.47;;;;;;;11.62;100.00;94590.78;5075299;28;20440;-80
2023/03/22 06:01:21;;;;;;;8.60;7.57;;;;;;;11.68;100.00;94589.38;5075948;28;20931;-80
2023/03/22 06:03:49;;;;;;;9.90;7.30;;;;;;;11.70;100.00;94583.00;5076024;28;20926;-79
2023/03/22 06:06:16;;;;;;;7.00;6.30;;;;;;;11.69;100.00;94588.41;5077005;28;20445;-80
2023/03/22 06:08:43;;;;;;;8.20;7.37;;;;;;;11.65;100.00;94589.66;5074828;28;20483;-82
2023/03/22 06:11:10;;;;;;;7.97;7.03;;;;;;;11.61;100.00;94601.44;5074680;28;20437;-81
2023/03/22 06:13:37;;;;;;;9.07;7.23;;;;;;;11.54;100.00;94598.53;5074782;28;20444;-81
2023/03/22 06:16:06;;;;;;;7.93;6.83;;;;;;;11.55;100.00;94597.56;5074463;28;20531;-80
2023/03/22 06:18:32;;;;;;;11.93;7.10;;;;;;;11.49;100.00;94603.38;5072219;28;20436;-81
2023/03/22 06:20:59;;;;;;;7.20;6.07;;;;;;;11.37;100.00;94591.41;5074120;28;20490;-80
2023/03/22 06:23:26;;;;;;;7.23;6.20;;;;;;;11.43;100.00;94606.59;5074504;28;20490;-81
2023/03/22 06:25:53;;;;;;;11.23;7.70;;;;;;;11.45;100.00;94604.66;5074423;28;20923;-81
2023/03/22 06:28:20;;;;;;;10.63;9.47;;;;;;;11.41;100.00;94598.03;5074452;28;20436;-81
2023/03/22 06:30:46;;;;;;;8.50;7.80;;;;;;;11.50;100.00;94607.69;5074328;28;20455;-81
2023/03/22 06:33:14;;;;;;;14.83;8.23;;;;;;;11.56;100.00;94603.66;5074417;28;20456;-80
2023/03/22 06:35:41;;;;;;;18.27;7.90;;;;;;;11.64;100.00;94604.59;5075808;28;20455;-82
2023/03/22 06:38:09;;;;;;;10.70;8.00;;;;;;;11.77;100.00;94607.72;5075990;28;20448;-82
2023/03/22 06:40:36;;;;;;;10.87;8.07;;;;;;;11.85;100.00;94600.94;5074939;28;20855;-80
2023/03/22 06:43:06;;;;;;;14.30;8.90;;;;;;;11.86;100.00;94608.72;5075761;28;20577;-83
2023/03/22 06:45:34;;;;;;;9.80;8.80;;;;;;;11.90;100.00;94604.81;5075792;28;20793;-84
2023/03/22 06:48:01;;;;;;;8.53;7.60;;;;;;;11.95;100.00;94607.00;5076308;28;20468;-81
2023/03/22 06:50:30;;;;;;;6.93;6.27;;;;;;;11.99;100.00;94613.63;5075175;28;20875;-77
2023/03/22 06:52:56;;;;;;;9.03;7.23;;;;;;;11.98;100.00;94618.06;5075489;28;20452;-85
2023/03/22 06:55:25;;;;;;;8.20;6.90;;;;;;;12.01;100.00;94623.03;5075544;28;20433;-78
2023/03/22 06:57:51;;;;;;;8.30;6.87;;;;;;;11.96;100.00;94624.44;5075079;28;20978;-79
2023/03/22 07:00:19;;;;;;;8.60;7.70;;;;;;;11.94;99.61;94624.59;5075474;28;20445;-81
2023/03/22 07:02:46;;;;;;;13.40;9.47;;;;;;;11.91;100.00;94631.94;5075131;28;20523;-80
2023/03/22 07:05:13;;;;;;;9.23;8.33;;;;;;;11.84;100.00;94633.47;5075490;28;20444;-81
2023/03/22 07:07:41;;;;;;;11.70;9.30;;;;;;;11.69;99.84;94623.41;5075376;28;20454;-82
2023/03/22 07:10:09;;;;;;;10.30;9.30;;;;;;;11.66;100.00;94639.47;5074806;28;20484;-83
2023/03/22 07:12:36;;;;;;;11.77;10.53;;;;;;;11.58;100.00;94641.16;5074548;28;20859;-83
2023/03/22 07:15:03;;;;;;;12.20;8.43;;;;;;;11.54;100.00;94634.50;5075027;28;20433;-83
2023/03/22 07:17:30;;;;;;;10.10;8.30;;;;;;;11.48;100.00;94639.34;5075065;28;20912;-85
2023/03/22 07:19:57;;;;;;;9.90;8.90;;;;;;;11.55;100.00;94650.13;5074868;28;20831;-83
2023/03/22 07:22:24;;;;;;;8.20;7.27;;;;;;;11.57;100.00;94652.63;5074991;28;20448;-82
2023/03/22 07:24:53;;;;;;;8.90;8.10;;;;;;;11.58;100.00;94655.13;5074599;28;20621;-81
2023/03/22 07:27:19;;;;;;;11.80;9.80;;;;;;;11.63;100.00;94652.88;5074552;28;20943;-82
2023/03/22 07:29:46;;;;;;;9.70;8.80;;;;;;;11.71;100.00;94657.41;5074532;28;20484;-80
2023/03/22 07:32:13;;;;;;;10.80;8.43;;;;;;;11.72;100.00;94648.56;5073964;28;20433;-79
2023/03/22 07:34:40;;;;;;;11.00;8.00;;;;;;;11.84;100.00;94668.47;5075046;28;20778;-79
2023/03/22 07:37:07;;;;;;;9.23;8.40;;;;;;;11.90;100.00;94669.72;5074966;28;20433;-81
2023/03/22 07:39:35;;;;;;;19.50;13.67;;;;;;;11.89;100.00;94666.25;5074337;28;20437;-82
2023/03/22 07:42:03;;;;;;;25.20;15.87;;;;;;;11.87;100.00;94667.38;5074233;28;20951;-79
2023/03/22 07:44:30;;;;;;;23.60;15.37;;;;;;;11.84;100.00;94665.84;5072380;28;20494;-81
2023/03/22 07:46:57;;;;;;;21.47;15.33;;;;;;;11.82;100.00;94662.53;5073974;28;20492;-81
2023/03/22 07:49:25;;;;;;;19.90;13.90;;;;;;;11.88;100.00;94666.41;5069150;28;20478;-82
2023/03/22 07:51:52;;;;;;;11.77;10.13;;;;;;;11.93;100.00;94669.44;5057496;28;20797;-82
2023/03/22 07:57:45;;;;;;;10.40;7.93;;;;;;;11.95;100.00;94667.50;5074221;28;20404;-81
2023/03/22 08:00:13;;;;;;;14.03;8.80;;;;;;;11.94;100.00;94671.91;5074032;28;20437;-82
2023/03/22 08:02:39;;;;;;;9.87;7.43;;;;;;;11.94;100.00;94674.53;5055216;28;20459;-81
2023/03/22 08:05:07;;;;;;;12.60;7.90;;;;;;;11.97;100.00;94669.00;5072975;28;20453;-80
2023/03/22 08:07:33;;;;;;;11.20;8.27;;;;;;;11.89;100.00;94666.25;5073804;28;20531;-84
2023/03/22 08:10:00;;;;;;;8.87;7.97;;;;;;;12.01;100.00;94669.53;5073865;28;20483;-83
2023/03/22 08:12:28;;;;;;;10.03;8.60;;;;;;;12.03;99.66;94678.09;5074161;28;20523;-85
2023/03/22 08:14:56;;;;;;;11.60;7.50;;;;;;;12.04;100.00;94672.69;5074304;28;20479;-83
2023/03/22 08:17:24;;;;;;;14.80;10.03;;;;;;;12.08;100.00;94675.88;5073862;28;20425;-84
2023/03/22 08:26:33;;;;;;;11.53;9.60;;;;;;;11.97;100.00;94673.44;5072158;28;20541;-85
2023/03/22 08:29:00;;;;;;;13.67;10.73;;;;;;;11.96;100.00;94677.03;5072140;28;20448;-83
2023/03/22 08:31:28;;;;;;;15.80;12.70;;;;;;;11.99;100.00;94682.81;5073494;28;20498;-84
2023/03/22 08:33:55;;;;;;;13.47;10.30;;;;;;;12.02;100.00;94682.53;5074005;28;20467;-82
2023/03/22 08:36:22;;;;;;;13.47;10.33;;;;;;;11.91;100.00;94668.75;5071689;28;20445;-83
2023/03/22 08:38:49;;;;;;;17.10;12.80;;;;;;;11.70;100.00;94688.13;5071870;28;20440;-83
2023/03/22 08:41:16;;;;;;;15.53;11.13;;;;;;;11.68;100.00;94682.19;5071908;28;20459;-83
2023/03/22 08:43:44;;;;;;;15.20;12.50;;;;;;;11.72;100.00;94685.38;5072961;28;20445;-82
2023/03/22 08:46:11;;;;;;;13.80;11.40;;;;;;;11.74;100.00;94681.63;5073142;28;20537;-82
2023/03/22 08:48:40;;;;;;;13.13;11.30;;;;;;;11.78;100.00;94687.44;5073839;28;20906;-81
2023/03/22 08:51:07;;;;;;;14.77;10.83;;;;;;;11.79;100.00;94692.56;5072468;28;20853;-83
2023/03/22 08:53:34;;;;;;;12.33;10.50;;;;;;;11.85;100.00;94683.28;5073253;28;20483;-84
2023/03/22 08:56:02;;;;;;;11.80;9.37;;;;;;;11.89;100.00;94676.78;5052949;28;20448;-85
2023/03/22 08:58:29;;;;;;;18.70;9.40;;;;;;;11.94;100.00;94678.97;5053277;28;20463;-84
2023/03/22 09:00:56;;;;;;;17.07;9.73;;;;;;;11.90;100.00;94691.59;5052959;28;20766;-82
2023/03/22 09:03:26;;;;;;;9.60;8.70;;;;;;;11.95;100.00;94691.97;5054852;28;20437;-83
2023/03/22 09:05:54;;;;;;;10.33;8.63;;;;;;;11.93;100.00;94688.66;5056355;28;20445;-83
2023/03/22 09:08:21;;;;;;;10.13;9.13;;;;;;;12.03;100.00;94693.88;5055419;28;20444;-83
2023/03/22 09:10:50;;;;;;;9.47;8.57;;;;;;;12.06;100.00;94704.13;5055659;28;20949;-83
2023/03/22 09:13:17;;;;;;;10.30;9.30;;;;;;;12.06;100.00;94698.84;5063748;28;20494;-83
2023/03/22 09:15:44;;;;;;;9.97;8.73;;;;;;;12.15;100.00;94703.28;5039871;28;20503;-81
2023/03/22 09:18:12;;;;;;;10.47;8.60;;;;;;;12.20;100.00;94701.03;5075852;28;20433;-81
2023/03/22 09:20:39;;;;;;;9.83;8.43;;;;;;;12.23;100.00;94702.53;5075603;28;20947;-82
2023/03/22 09:23:07;;;;;;;12.90;7.87;;;;;;;12.22;99.85;94704.34;5075366;28;20437;-83
2023/03/22 09:25:34;;;;;;;10.80;9.70;;;;;;;12.26;99.83;94704.88;5076551;28;20506;-81
2023/03/22 09:28:01;;;;;;;13.17;8.87;;;;;;;12.28;99.52;94700.31;5076330;28;20448;-83
2023/03/22 09:30:28;;;;;;;11.70;9.70;;;;;;;12.28;99.84;94695.88;5075717;28;20484;-83
2023/03/22 09:32:55;;;;;;;13.20;9.97;;;;;;;12.33;99.62;94701.53;5076022;28;20548;-83
2023/03/22 09:35:22;;;;;;;9.77;8.77;;;;;;;12.35;98.78;94704.00;5076332;28;20436;-82
2023/03/22 09:37:52;;;;;;;11.70;9.83;;;;;;;12.40;99.47;94712.28;5076523;28;20435;-83
2023/03/22 09:40:21;;;;;;;12.03;10.03;;;;;;;12.36;100.00;94695.97;5077104;28;20803;-82
2023/03/22 09:42:51;;;;;;;14.23;12.70;;;;;;;12.41;99.67;94709.50;5076357;28;20451;-80
2023/03/22 09:45:23;;;;;;;19.63;15.77;;;;;;;12.35;98.35;94707.47;5077070;28;20441;-82
2023/03/22 09:47:54;;;;;;;22.50;17.30;;;;;;;12.35;98.73;94693.47;5076191;28;20476;-83
2023/03/22 09:50:23;;;;;;;24.97;20.50;;;;;;;12.38;98.59;94704.53;5075654;28;21013;-83
2023/03/22 09:52:51;;;;;;;28.20;20.17;;;;;;;12.42;98.36;94705.06;5075670;28;20455;-82
2023/03/22 09:55:21;;;;;;;26.10;19.13;;;;;;;12.41;98.28;94712.13;5075940;28;20449;-81
2023/03/22 09:57:59;;;;;;;21.00;16.40;;;;;;;12.34;97.07;94708.44;5076569;28;20486;-82
2023/03/22 10:00:38;;;;;;;16.97;13.70;;;;;;;12.21;96.99;94705.31;5076131;28;20520;-82
2023/03/22 10:03:16;;;;;;;16.37;11.23;;;;;;;12.26;98.16;94720.66;5057771;28;20451;-81
2023/03/22 10:05:49;;;;;;;16.47;11.40;;;;;;;12.12;97.26;94713.22;5076341;28;20453;-83
2023/03/22 10:08:35;;;;;;;12.40;10.10;;;;;;;12.10;96.99;94711.56;5076450;28;20438;-83
2023/03/22 10:11:09;;;;;;;11.87;9.30;;;;;;;12.10;94.77;94721.25;5041268;28;20491;-82
2023/03/22 10:13:41;;;;;;;8.10;7.30;;;;;;;12.08;94.65;94721.41;5075804;28;20450;-82
2023/03/22 10:16:12;;;;;;;10.33;7.80;;;;;;;12.09;93.61;94723.06;5074632;28;20493;-82
2023/03/22 10:18:45;;;;;;;9.13;8.20;;;;;;;12.06;92.25;94725.97;5074192;28;20911;-82
2023/03/22 10:21:14;;;;;;;10.53;8.50;;;;;;;12.13;92.47;94728.88;5075614;28;20448;-82
2023/03/22 10:23:47;;;;;;;17.63;9.70;;;;;;;12.03;92.55;94717.56;5075027;28;20436;-82
2023/03/22 10:26:22;;;;;;;11.53;9.80;;;;;;;12.02;92.47;94723.78;5075692;28;20490;-82
2023/03/22 10:28:58;;;;;;;16.97;9.13;;;;;;;11.81;92.37;94736.28;5040666;28;20443;-82
2023/03/22 10:31:27;;;;;;;12.83;9.17;;;;;;;11.83;94.15;94723.81;5075729;28;20479;-86
2023/03/22 10:33:58;;;;;;;10.30;7.30;;;;;;;11.87;94.91;94719.97;5075903;28;20532;-84
2023/03/22 10:36:33;;;;;;;7.70;6.90;;;;;;;11.85;92.38;94724.50;5075637;28;20771;-85
2023/03/22 10:39:06;;;;;;;5.90;5.30;;;;;;;11.82;92.43;94724.78;5075640;28;20814;-86
2023/03/22 10:41:35;;;;;;;6.50;5.77;;;;;;;11.87;93.02;94725.22;5075772;28;20445;-84
2023/03/22 10:44:04;;;;;;;7.33;6.57;;;;;;;11.93;93.91;94722.03;5075640;28;20445;-82
2023/03/22 10:46:36;;;;;;;9.03;7.43;;;;;;;12.01;93.06;94719.50;5075465;28;20473;-81
2023/03/22 10:49:05;;;;;;;10.00;7.60;;;;;;;12.06;92.30;94722.53;5074765;28;20955;-79
2023/03/22 10:51:37;;;;;;;11.00;9.87;;;;;;;12.09;92.97;94727.50;5075405;28;20483;-80
2023/03/22 10:54:04;;;;;;;15.47;10.27;;;;;;;12.14;93.41;94724.44;5075985;28;20441;-80
2023/03/22 10:56:31;;;;;;;13.77;9.10;;;;;;;12.22;93.16;94724.56;5056749;28;20439;-78
2023/03/22 10:59:00;;;;;;;12.30;9.57;;;;;;;12.30;93.77;94725.50;5039937;28;20442;-79
2023/03/22 11:01:30;;;;;;;11.97;9.20;;;;;;;12.20;91.98;94723.88;5075152;28;20445;-81
2023/03/22 11:03:59;;;;;;;10.93;7.73;;;;;;;12.22;92.97;94716.66;5074777;28;20472;-84
2023/03/22 11:06:31;;;;;;;9.10;8.20;;;;;;;12.19;91.74;94720.41;5074686;28;20498;-83
2023/03/22 11:09:01;;;;;;;8.83;7.90;;;;;;;12.22;91.90;94725.38;5074785;28;20445;-81
2023/03/22 11:11:30;;;;;;;11.17;8.67;;;;;;;12.23;91.43;94720.97;5075177;28;20823;-82
2023/03/22 11:14:06;;;;;;;14.43;10.37;;;;;;;12.20;92.23;94721.25;5075379;28;20452;-85
2023/03/22 11:16:42;;;;;;;10.00;7.70;;;;;;;12.17;92.83;94711.84;5075030;28;20420;-83
2023/03/22 11:19:19;;;;;;;8.20;7.40;;;;;;;12.23;93.21;94706.00;5058015;28;20452;-83
2023/03/22 11:21:46;;;;;;;6.90;6.20;;;;;;;12.25;94.21;94711.94;5063095;28;20440;-84
2023/03/22 11:24:14;;;;;;;6.83;6.17;;;;;;;12.39;93.11;94714.09;5074822;28;20444;-84
2023/03/22 11:26:43;;;;;;;10.13;6.87;;;;;;;12.30;91.78;94712.34;5074579;28;20440;-86
2023/03/22 11:29:18;;;;;;;9.83;6.33;;;;;;;12.27;91.36;94712.63;5075349;28;20911;-86
2023/03/22 11:31:55;;;;;;;8.73;5.60;;;;;;;12.19;91.96;94712.53;5074916;28;20471;-86
2023/03/22 11:34:25;;;;;;;6.60;5.50;;;;;;;12.10;90.70;94708.13;5074566;28;20452;-85
2023/03/22 11:36:55;;;;;;;8.03;7.27;;;;;;;12.06;90.74;94714.63;5074610;28;20452;-85
2023/03/22 11:39:24;;;;;;;11.53;8.70;;;;;;;12.12;90.61;94716.69;5074457;28;20436;-86
2023/03/22 11:41:52;;;;;;;7.93;6.57;;;;;;;12.13;89.86;94718.34;5074654;28;20438;-85
2023/03/22 11:44:22;;;;;;;7.33;6.57;;;;;;;12.13;90.35;94714.88;5074168;28;20441;-85
2023/03/22 11:46:53;;;;;;;9.90;7.13;;;;;;;12.17;91.04;94713.66;5073845;28;20476;-83
2023/03/22 11:49:21;;;;;;;6.80;6.10;;;;;;;12.20;90.82;94706.28;5074257;28;20828;-83
2023/03/22 11:51:47;;;;;;;7.30;6.60;;;;;;;12.20;90.04;94703.66;5073863;28;20538;-82